Time;durP1;ratioP1;P1;durP2;ratioP2;P2;SDS_P1;SDS_P2;PMS_P1;PMS_P2;Temp;Humidity;BMP_temperature;BMP_pressure;BME280_temperature;BME280_humidity;BME280_pressure;Samples;Min_cycle;Max_cycle;Signal;HPM_P1;HPM_P2
2023/02/22 00:00:39;;;;;;;113.07;44.97;;;8.20;99.90;;;;;;5051763;28;20403;-63
2023/02/22 00:03:06;;;;;;;117.88;45.28;;;8.20;99.90;;;;;;5051891;28;20032;-63
2023/02/22 00:05:32;;;;;;;129.27;47.72;;;8.10;99.90;;;;;;5052095;28;20108;-63
2023/02/22 00:07:59;;;;;;;130.30;48.10;;;8.20;99.90;;;;;;5052054;28;20053;-63
2023/02/22 00:10:25;;;;;;;133.48;48.03;;;8.20;99.90;;;;;;5053217;28;20474;-63
2023/02/22 00:12:53;;;;;;;137.65;50.15;;;8.20;99.90;;;;;;5052934;28;20032;-63
2023/02/22 00:15:22;;;;;;;141.80;50.38;;;8.20;99.90;;;;;;5053101;28;20032;-63
2023/02/22 00:17:47;;;;;;;125.75;45.60;;;8.20;99.90;;;;;;5051803;28;20116;-63
2023/02/22 00:20:16;;;;;;;152.90;50.92;;;8.20;99.90;;;;;;5053019;28;20184;-63
2023/02/22 00:22:45;;;;;;;148.77;49.97;;;8.20;99.90;;;;;;5039685;28;20115;-63
2023/02/22 00:25:12;;;;;;;171.48;55.08;;;8.20;99.90;;;;;;5055983;28;20027;-62
2023/02/22 00:27:37;;;;;;;182.73;55.20;;;8.30;99.90;;;;;;5039200;28;20048;-63
2023/02/22 00:30:05;;;;;;;189.45;58.78;;;8.20;99.90;;;;;;5057054;28;20446;-63
2023/02/22 00:32:30;;;;;;;181.68;56.53;;;8.20;99.90;;;;;;5055822;28;20017;-63
2023/02/22 00:34:56;;;;;;;181.32;54.50;;;8.20;99.90;;;;;;5056807;28;20082;-63
2023/02/22 00:37:22;;;;;;;193.18;58.53;;;8.20;99.90;;;;;;5055739;28;20071;-63
2023/02/22 00:39:48;;;;;;;198.23;58.58;;;8.10;99.90;;;;;;5056524;28;20100;-63
2023/02/22 00:42:15;;;;;;;213.57;58.15;;;8.10;99.90;;;;;;5056788;28;20532;-63
2023/02/22 00:44:40;;;;;;;239.40;60.70;;;8.10;99.90;;;;;;5056547;28;20029;-63
2023/02/22 00:47:07;;;;;;;210.02;58.30;;;8.00;99.90;;;;;;5056505;28;20407;-63
2023/02/22 00:49:33;;;;;;;225.85;54.95;;;8.00;99.90;;;;;;5056626;28;20033;-63
2023/02/22 00:51:59;;;;;;;295.10;56.03;;;8.00;99.90;;;;;;5056625;28;20024;-63
2023/02/22 00:54:25;;;;;;;270.60;52.15;;;7.90;99.90;;;;;;5055368;28;20490;-63
2023/02/22 00:56:50;;;;;;;506.52;65.65;;;7.90;99.90;;;;;;5056551;28;20091;-63
2023/02/22 00:59:16;;;;;;;420.10;57.90;;;7.80;99.90;;;;;;5055991;28;20076;-63
2023/02/22 01:01:42;;;;;;;449.73;61.38;;;7.80;99.90;;;;;;5056221;28;20036;-63
2023/02/22 01:04:08;;;;;;;498.92;59.47;;;7.80;99.90;;;;;;5056175;28;20033;-63
2023/02/22 01:06:33;;;;;;;410.50;54.25;;;7.80;99.90;;;;;;5055076;28;20386;-63
2023/02/22 01:09:01;;;;;;;610.80;66.47;;;7.70;99.90;;;;;;5056188;28;20025;-63
2023/02/22 01:11:26;;;;;;;388.65;51.97;;;7.60;99.90;;;;;;5056174;28;20475;-63
2023/02/22 01:13:53;;;;;;;358.05;51.25;;;7.60;99.90;;;;;;5056135;28;20108;-64
2023/02/22 01:16:19;;;;;;;534.47;58.92;;;7.50;99.90;;;;;;5056180;28;20172;-63
2023/02/22 01:18:44;;;;;;;316.45;50.70;;;7.50;99.90;;;;;;5055856;28;20017;-63
2023/02/22 01:21:10;;;;;;;502.35;58.25;;;7.50;99.90;;;;;;5055882;28;20032;-63
2023/02/22 01:23:35;;;;;;;315.65;50.03;;;7.50;99.90;;;;;;5055853;28;20021;-63
2023/02/22 01:26:04;;;;;;;439.00;54.10;;;7.40;99.90;;;;;;5055915;28;20390;-64
2023/02/22 01:28:31;;;;;;;302.60;49.95;;;7.40;99.90;;;;;;5054703;28;20107;-63
2023/02/22 01:30:57;;;;;;;364.27;49.08;;;7.40;99.90;;;;;;5055815;28;20021;-63
2023/02/22 01:33:24;;;;;;;739.60;72.78;;;7.40;99.90;;;;;;5055390;28;20029;-63
2023/02/22 01:35:50;;;;;;;345.98;50.67;;;7.40;99.90;;;;;;5054656;28;20029;-63
2023/02/22 01:38:16;;;;;;;374.17;51.88;;;7.40;99.90;;;;;;5055549;28;20441;-63
2023/02/22 01:40:46;;;;;;;395.55;56.45;;;7.30;99.90;;;;;;5055623;28;20516;-63
2023/02/22 01:43:23;;;;;;;487.45;55.03;;;7.30;99.90;;;;;;5038395;28;20024;-63
2023/02/22 01:46:02;;;;;;;376.83;54.38;;;7.40;99.90;;;;;;5055632;28;20049;-63
2023/02/22 01:48:34;;;;;;;309.95;49.67;;;7.40;99.90;;;;;;5055575;28;20610;-63
2023/02/22 01:51:11;;;;;;;368.05;53.72;;;7.30;99.90;;;;;;5055418;28;20501;-63
2023/02/22 01:53:57;;;;;;;237.70;46.22;;;7.30;99.90;;;;;;5054358;28;20064;-63
2023/02/22 01:56:25;;;;;;;346.38;50.75;;;7.30;99.90;;;;;;5054017;28;20029;-63
2023/02/22 01:58:57;;;;;;;371.02;51.72;;;7.30;99.90;;;;;;5053870;28;20048;-63
2023/02/22 02:01:24;;;;;;;414.65;49.28;;;7.30;99.90;;;;;;5055059;28;20383;-63
2023/02/22 02:03:51;;;;;;;409.20;52.40;;;7.20;99.90;;;;;;5055012;28;20495;-63
2023/02/22 02:06:19;;;;;;;461.95;54.38;;;7.10;99.90;;;;;;5055023;28;20078;-63
2023/02/22 02:08:58;;;;;;;215.10;41.60;;;7.10;99.90;;;;;;5055182;28;20107;-63
2023/02/22 02:11:26;;;;;;;381.15;46.90;;;7.00;99.90;;;;;;5053514;28;20082;-63
2023/02/22 02:13:55;;;;;;;367.17;48.78;;;7.00;99.90;;;;;;5054867;28;20115;-63
2023/02/22 02:16:24;;;;;;;362.83;48.17;;;6.90;99.90;;;;;;5055069;28;20441;-63
2023/02/22 02:18:50;;;;;;;319.98;45.08;;;6.90;99.90;;;;;;5054600;28;20047;-63
2023/02/22 02:21:39;;;;;;;391.02;44.85;;;6.80;99.90;;;;;;5054955;28;20028;-63
2023/02/22 02:24:38;;;;;;;178.10;36.42;;;6.80;99.90;;;;;;5054698;28;20028;-63
2023/02/22 02:27:16;;;;;;;168.13;38.35;;;6.80;99.90;;;;;;5054845;28;20025;-63
2023/02/22 02:30:18;;;;;;;167.27;37.28;;;6.80;99.90;;;;;;5054743;28;20029;-63
2023/02/22 02:35:54;;;;;;;401.48;46.15;;;6.80;99.90;;;;;;5111252;27;20384;-63
2023/02/22 02:41:28;;;;;;;307.98;43.78;;;6.70;99.90;;;;;;5111292;27;20384;-63
2023/02/22 02:44:09;;;;;;;234.40;41.25;;;6.60;99.90;;;;;;5110912;28;20038;-63
2023/02/22 02:46:45;;;;;;;443.15;49.25;;;6.60;99.90;;;;;;5111167;28;20027;-63
2023/02/22 02:49:17;;;;;;;407.30;45.70;;;6.60;99.90;;;;;;5109951;28;20076;-63
2023/02/22 02:51:49;;;;;;;226.52;39.05;;;6.60;99.90;;;;;;5110961;28;20030;-64
2023/02/22 02:54:16;;;;;;;385.17;44.90;;;6.60;99.90;;;;;;5111299;28;20024;-63
2023/02/22 02:56:42;;;;;;;334.15;45.05;;;6.60;99.90;;;;;;5110942;28;20016;-63
2023/02/22 02:59:36;;;;;;;299.85;42.60;;;6.60;99.90;;;;;;5110787;28;20081;-63
2023/02/22 03:02:36;;;;;;;236.35;41.28;;;6.60;99.90;;;;;;5109621;28;20028;-63
2023/02/22 03:05:36;;;;;;;300.70;44.55;;;6.60;99.90;;;;;;5109666;28;20478;-63
2023/02/22 03:08:33;;;;;;;180.35;36.75;;;6.50;99.90;;;;;;5110707;28;20016;-64
2023/02/22 03:11:18;;;;;;;216.68;39.95;;;6.50;99.90;;;;;;5109616;28;20024;-64
2023/02/22 03:14:09;;;;;;;309.33;42.53;;;6.50;99.90;;;;;;5110763;28;20435;-64
2023/02/22 03:16:51;;;;;;;270.17;40.25;;;6.50;99.90;;;;;;5109396;28;20028;-64
2023/02/22 03:19:26;;;;;;;253.45;41.05;;;6.50;99.90;;;;;;5110260;27;20020;-63
2023/02/22 03:25:05;;;;;;;286.90;41.67;;;6.50;99.90;;;;;;5111071;27;20405;-64
2023/02/22 03:27:42;;;;;;;350.30;43.63;;;6.40;99.90;;;;;;5110219;28;20385;-64
2023/02/22 03:30:12;;;;;;;349.25;44.30;;;6.40;99.90;;;;;;5109775;28;20057;-64
2023/02/22 03:32:42;;;;;;;245.85;40.17;;;6.30;99.90;;;;;;5110974;28;20021;-64
2023/02/22 03:35:15;;;;;;;309.40;40.83;;;6.30;99.90;;;;;;5110033;28;20489;-64
2023/02/22 03:37:47;;;;;;;420.65;46.08;;;6.20;99.90;;;;;;5110945;28;20020;-64
2023/02/22 03:40:24;;;;;;;453.83;46.30;;;6.20;99.90;;;;;;5109710;28;20031;-64
2023/02/22 03:42:54;;;;;;;353.27;42.42;;;6.10;99.90;;;;;;5110736;28;20028;-64
2023/02/22 03:45:23;;;;;;;316.85;43.88;;;6.10;99.90;;;;;;5110785;28;20028;-64
2023/02/22 03:47:56;;;;;;;175.95;36.33;;;6.10;99.90;;;;;;5110522;27;20474;-64
2023/02/22 03:50:28;;;;;;;257.48;40.58;;;6.00;99.90;;;;;;5110848;28;20019;-64
2023/02/22 03:52:54;;;;;;;295.10;42.38;;;6.10;99.90;;;;;;5109475;28;20031;-64
2023/02/22 03:55:22;;;;;;;277.85;39.67;;;6.10;99.90;;;;;;5110518;28;20035;-64
2023/02/22 03:57:51;;;;;;;319.23;40.20;;;6.00;99.90;;;;;;5110739;28;20056;-64
2023/02/22 04:00:21;;;;;;;213.85;36.38;;;6.00;99.90;;;;;;5109232;28;20477;-64
2023/02/22 04:02:47;;;;;;;290.63;39.85;;;6.00;99.90;;;;;;5110158;28;20032;-64
2023/02/22 04:05:13;;;;;;;249.27;39.17;;;6.00;99.90;;;;;;5110560;28;20027;-64
2023/02/22 04:07:39;;;;;;;291.05;39.72;;;6.00;99.90;;;;;;5110371;28;20028;-64
2023/02/22 04:10:07;;;;;;;356.80;41.75;;;6.00;99.90;;;;;;5110320;28;20110;-64
2023/02/22 04:12:34;;;;;;;203.05;36.78;;;5.90;99.90;;;;;;5109348;28;20099;-64
2023/02/22 04:15:00;;;;;;;287.88;41.60;;;5.90;99.90;;;;;;5109172;28;20031;-64
2023/02/22 04:17:26;;;;;;;396.65;44.33;;;5.80;99.90;;;;;;5110113;28;20016;-64
2023/02/22 04:19:52;;;;;;;425.80;43.15;;;5.80;99.90;;;;;;5110350;28;20049;-64
2023/02/22 04:22:17;;;;;;;420.83;41.03;;;5.80;99.90;;;;;;5110009;28;20019;-64
2023/02/22 04:24:44;;;;;;;390.85;40.92;;;5.70;99.90;;;;;;5108911;28;20039;-64
2023/02/22 04:27:09;;;;;;;202.35;32.67;;;5.60;99.90;;;;;;5110258;28;20020;-64
2023/02/22 04:29:35;;;;;;;464.50;45.30;;;5.60;99.90;;;;;;5110014;28;20111;-64
2023/02/22 04:32:00;;;;;;;337.02;40.88;;;5.60;99.90;;;;;;5110008;28;20031;-64
2023/02/22 04:34:26;;;;;;;207.93;35.97;;;5.50;99.90;;;;;;5105547;28;20067;-64
2023/02/22 04:36:51;;;;;;;253.35;37.28;;;5.60;99.90;;;;;;5096192;28;20036;-64
2023/02/22 04:39:17;;;;;;;304.60;38.08;;;5.60;99.90;;;;;;5096137;28;20032;-64
2023/02/22 04:41:43;;;;;;;322.23;40.35;;;5.60;99.90;;;;;;5096126;28;20105;-64
2023/02/22 04:44:08;;;;;;;208.88;36.42;;;5.50;99.90;;;;;;5096048;28;20031;-64
2023/02/22 04:46:34;;;;;;;252.75;37.28;;;5.50;99.90;;;;;;5096062;28;20028;-64
2023/02/22 04:48:59;;;;;;;296.92;40.75;;;5.50;99.90;;;;;;5096215;28;20024;-64
2023/02/22 04:51:25;;;;;;;233.55;35.28;;;5.50;99.90;;;;;;5096174;28;20056;-64
2023/02/22 04:53:50;;;;;;;291.25;36.38;;;5.50;99.90;;;;;;5096154;28;20044;-64
2023/02/22 04:56:17;;;;;;;182.13;31.90;;;5.50;99.90;;;;;;5096043;28;20032;-64
2023/02/22 04:58:43;;;;;;;257.58;34.88;;;5.40;99.90;;;;;;5096045;28;20028;-64
2023/02/22 05:01:09;;;;;;;217.38;31.50;;;5.40;99.90;;;;;;5095793;28;20375;-64
2023/02/22 05:03:37;;;;;;;200.23;33.17;;;5.30;99.90;;;;;;5095750;28;20085;-64
2023/02/22 05:06:02;;;;;;;220.43;32.00;;;5.20;99.90;;;;;;5094629;28;20028;-63
2023/02/22 05:08:28;;;;;;;345.05;39.50;;;5.10;99.90;;;;;;5095529;28;20567;-64
2023/02/22 05:10:54;;;;;;;152.27;27.50;;;5.10;99.90;;;;;;5095776;28;20031;-64
2023/02/22 05:13:19;;;;;;;293.20;32.13;;;5.10;99.90;;;;;;5095519;28;20051;-64
2023/02/22 05:15:46;;;;;;;274.13;30.92;;;4.90;99.90;;;;;;5095644;28;20033;-64
2023/02/22 05:18:12;;;;;;;286.20;31.67;;;4.80;99.90;;;;;;5095416;28;20031;-64
2023/02/22 05:20:38;;;;;;;302.88;32.65;;;4.80;99.90;;;;;;5094419;28;20024;-64
2023/02/22 05:23:04;;;;;;;149.80;25.70;;;4.80;99.90;;;;;;5095061;28;20173;-64
2023/02/22 05:25:30;;;;;;;116.80;25.67;;;4.70;99.90;;;;;;5095379;28;20074;-64
2023/02/22 05:27:58;;;;;;;102.45;23.88;;;4.80;99.90;;;;;;5095473;28;20030;-64
2023/02/22 05:30:28;;;;;;;116.35;25.58;;;4.80;99.90;;;;;;5094026;28;20020;-64
2023/02/22 05:32:54;;;;;;;191.93;28.10;;;4.70;99.90;;;;;;5094211;28;20032;-64
2023/02/22 05:35:21;;;;;;;234.50;26.52;;;4.80;99.90;;;;;;5095056;28;20031;-64
2023/02/22 05:37:47;;;;;;;211.43;26.02;;;4.70;99.90;;;;;;5095088;28;20478;-64
2023/02/22 05:40:13;;;;;;;325.80;30.63;;;4.60;99.90;;;;;;5095023;28;20032;-64
2023/02/22 05:42:40;;;;;;;207.23;26.13;;;4.50;99.90;;;;;;5093913;28;20492;-64
2023/02/22 05:45:06;;;;;;;203.13;25.67;;;4.50;99.90;;;;;;5093726;28;20032;-64
2023/02/22 05:47:31;;;;;;;177.38;24.52;;;4.40;99.90;;;;;;5092921;28;20082;-64
2023/02/22 05:49:57;;;;;;;82.47;21.90;;;4.40;99.90;;;;;;5094975;28;20047;-64
2023/02/22 05:52:23;;;;;;;86.65;20.88;;;4.30;99.90;;;;;;5094897;28;20028;-64
2023/02/22 05:54:48;;;;;;;153.32;22.80;;;4.20;99.90;;;;;;5094688;28;20386;-64
2023/02/22 05:57:14;;;;;;;199.57;25.52;;;4.10;99.90;;;;;;5094650;28;20492;-64
2023/02/22 05:59:39;;;;;;;64.28;19.45;;;4.00;99.90;;;;;;5094816;28;20058;-64
2023/02/22 06:02:05;;;;;;;98.32;21.67;;;3.90;99.90;;;;;;5094637;28;20103;-64
2023/02/22 06:04:30;;;;;;;51.25;18.75;;;4.00;99.90;;;;;;5094569;28;20054;-64
2023/02/22 06:06:56;;;;;;;112.05;22.90;;;4.00;99.90;;;;;;5093270;28;20030;-64
2023/02/22 06:09:22;;;;;;;83.07;21.90;;;4.00;99.90;;;;;;5094386;28;20032;-64
2023/02/22 06:11:47;;;;;;;198.05;28.58;;;4.00;99.90;;;;;;5094296;28;20432;-64
2023/02/22 06:14:13;;;;;;;263.75;30.05;;;4.10;99.90;;;;;;5094529;28;20024;-64
2023/02/22 06:16:38;;;;;;;191.35;27.80;;;4.10;99.90;;;;;;5094328;28;20028;-64
2023/02/22 06:19:04;;;;;;;169.30;26.40;;;4.10;99.90;;;;;;5094205;28;20039;-64
2023/02/22 06:21:29;;;;;;;227.82;33.53;;;4.20;99.90;;;;;;5094139;28;20482;-64
2023/02/22 06:23:55;;;;;;;226.27;37.47;;;4.10;99.90;;;;;;5093837;28;20464;-64
2023/02/22 06:26:21;;;;;;;411.73;46.30;;;4.20;99.90;;;;;;5094061;28;20020;-64
2023/02/22 06:28:47;;;;;;;239.90;31.05;;;4.10;99.90;;;;;;5094257;28;20020;-64
2023/02/22 06:31:13;;;;;;;238.65;30.27;;;4.10;99.90;;;;;;5093807;28;20031;-64
2023/02/22 06:33:39;;;;;;;152.90;25.67;;;4.10;99.90;;;;;;5093821;28;20056;-64
2023/02/22 06:36:05;;;;;;;163.68;26.27;;;4.10;99.90;;;;;;5094021;28;20495;-64
2023/02/22 06:38:31;;;;;;;150.38;24.92;;;4.10;99.90;;;;;;5093796;28;20024;-64
2023/02/22 06:40:56;;;;;;;124.40;23.23;;;4.20;99.90;;;;;;5093795;28;20031;-64
2023/02/22 06:43:23;;;;;;;99.53;23.60;;;4.10;99.90;;;;;;5093870;28;20473;-64
2023/02/22 06:45:50;;;;;;;100.00;22.05;;;4.20;99.90;;;;;;5093714;28;20016;-64
2023/02/22 06:48:16;;;;;;;163.15;23.23;;;4.20;99.90;;;;;;5093927;28;20103;-64
2023/02/22 06:50:41;;;;;;;55.50;21.08;;;4.20;99.90;;;;;;5073454;28;20020;-64
2023/02/22 06:53:08;;;;;;;70.53;22.15;;;4.20;99.90;;;;;;5073622;28;20107;-64
2023/02/22 06:55:34;;;;;;;95.53;22.50;;;4.20;99.90;;;;;;5073511;28;20397;-64
2023/02/22 06:58:00;;;;;;;115.28;24.05;;;4.30;99.90;;;;;;5073306;28;20036;-64
2023/02/22 07:00:27;;;;;;;71.47;20.23;;;4.30;99.90;;;;;;5060450;28;20091;-64
2023/02/22 07:02:55;;;;;;;125.20;22.50;;;4.30;99.90;;;;;;5058091;28;20054;-64
2023/02/22 07:05:22;;;;;;;194.25;25.83;;;4.20;99.90;;;;;;5071992;28;20482;-63
2023/02/22 07:07:51;;;;;;;252.48;26.58;;;4.30;99.90;;;;;;5059981;28;20108;-64
2023/02/22 07:10:26;;;;;;;269.60;28.15;;;4.20;99.90;;;;;;5062158;28;20073;-63
2023/02/22 07:12:52;;;;;;;359.38;30.90;;;4.20;99.90;;;;;;5058907;28;20056;-63
2023/02/22 07:15:20;;;;;;;285.80;28.48;;;4.10;99.90;;;;;;5070799;28;20083;-64
2023/02/22 07:17:46;;;;;;;207.20;26.17;;;4.20;99.90;;;;;;5068203;28;20482;-63
2023/02/22 07:20:12;;;;;;;107.25;22.00;;;4.20;99.90;;;;;;5072722;28;20029;-64
2023/02/22 07:22:38;;;;;;;158.95;23.63;;;4.30;99.90;;;;;;5068017;28;20048;-64
2023/02/22 07:25:08;;;;;;;347.08;31.60;;;4.30;99.90;;;;;;5073136;28;20470;-63
2023/02/22 07:27:35;;;;;;;120.18;22.15;;;4.30;99.90;;;;;;5073103;28;20534;-63
2023/02/22 07:30:00;;;;;;;216.95;26.70;;;4.30;99.90;;;;;;5058253;28;20051;-63
2023/02/22 07:32:26;;;;;;;201.30;24.73;;;4.40;99.90;;;;;;5068893;28;20024;-63
2023/02/22 07:34:51;;;;;;;173.25;22.27;;;4.50;99.90;;;;;;5070247;28;20029;-64
2023/02/22 07:37:17;;;;;;;89.63;20.92;;;4.50;99.90;;;;;;5072036;28;20047;-63
2023/02/22 07:39:42;;;;;;;115.78;21.27;;;4.50;99.90;;;;;;5072392;28;20096;-63
2023/02/22 07:42:08;;;;;;;189.95;22.75;;;4.60;99.90;;;;;;5070666;28;20142;-64
2023/02/22 07:44:34;;;;;;;143.88;21.27;;;4.60;99.90;;;;;;5071511;28;20029;-64
2023/02/22 07:47:01;;;;;;;136.85;20.55;;;4.70;99.90;;;;;;5062566;28;20024;-63
2023/02/22 07:49:27;;;;;;;125.35;20.90;;;4.80;99.90;;;;;;5053883;28;20033;-63
2023/02/22 07:51:52;;;;;;;51.78;19.42;;;4.90;99.90;;;;;;5072627;28;20029;-63
2023/02/22 07:54:18;;;;;;;63.28;19.70;;;4.90;99.90;;;;;;5070729;28;20091;-64
2023/02/22 07:56:46;;;;;;;51.35;17.95;;;5.10;99.90;;;;;;5061593;28;20040;-66
2023/02/22 07:59:12;;;;;;;87.15;19.17;;;5.10;99.90;;;;;;5058654;28;20025;-66
2023/02/22 08:01:38;;;;;;;49.63;17.58;;;5.10;99.90;;;;;;5063659;28;20035;-66
2023/02/22 08:04:04;;;;;;;32.97;14.75;;;5.10;99.90;;;;;;5058056;28;20025;-65
2023/02/22 08:06:30;;;;;;;30.23;16.45;;;5.20;99.90;;;;;;5066407;28;20107;-65
2023/02/22 08:08:56;;;;;;;33.13;16.65;;;5.20;99.90;;;;;;5065600;28;20020;-65
2023/02/22 08:11:22;;;;;;;34.40;17.00;;;5.30;99.90;;;;;;5073541;28;20067;-65
2023/02/22 08:13:48;;;;;;;30.95;16.55;;;5.40;99.90;;;;;;5069976;28;20386;-65
2023/02/22 08:16:13;;;;;;;28.55;16.08;;;5.60;99.90;;;;;;5062126;28;20028;-65
2023/02/22 08:18:39;;;;;;;28.95;16.20;;;5.70;99.90;;;;;;5060567;28;20040;-65
2023/02/22 08:21:05;;;;;;;29.05;16.52;;;5.80;99.90;;;;;;5068694;28;20033;-65
2023/02/22 08:23:31;;;;;;;27.75;16.52;;;6.00;99.90;;;;;;5065026;28;20403;-65
2023/02/22 08:26:04;;;;;;;25.85;15.38;;;6.00;99.90;;;;;;5064715;28;20035;-65
2023/02/22 08:28:30;;;;;;;27.63;15.80;;;6.00;99.90;;;;;;5063119;28;20021;-65
2023/02/22 08:30:56;;;;;;;35.13;17.20;;;6.20;99.90;;;;;;5063801;28;20028;-65
2023/02/22 08:33:21;;;;;;;26.15;16.63;;;6.40;99.90;;;;;;5071774;28;20120;-64
2023/02/22 08:35:48;;;;;;;32.00;17.52;;;6.70;99.90;;;;;;5070980;28;20444;-64
2023/02/22 08:38:17;;;;;;;25.20;15.18;;;7.00;99.90;;;;;;5064068;28;20075;-65
2023/02/22 08:40:42;;;;;;;20.65;13.40;;;7.30;99.90;;;;;;5061672;28;20490;-64
2023/02/22 08:43:08;;;;;;;16.63;11.13;;;7.40;99.90;;;;;;5067291;28;20036;-64
2023/02/22 08:45:33;;;;;;;18.08;11.48;;;7.80;99.90;;;;;;5064027;28;20033;-65
2023/02/22 08:47:59;;;;;;;18.95;11.77;;;8.00;99.90;;;;;;5070756;28;20086;-66
2023/02/22 08:50:29;;;;;;;17.60;10.82;;;8.40;99.90;;;;;;5062210;28;20027;-66
2023/02/22 08:52:58;;;;;;;16.23;10.85;;;8.50;99.90;;;;;;5070937;28;20120;-66
2023/02/22 08:55:27;;;;;;;19.00;11.80;;;8.70;99.90;;;;;;5062961;28;20056;-66
2023/02/22 08:57:52;;;;;;;14.20;10.18;;;8.90;99.90;;;;;;5067035;28;20043;-66
2023/02/22 09:00:20;;;;;;;16.40;10.50;;;9.40;99.90;;;;;;5072197;28;20040;-66
2023/02/22 09:02:45;;;;;;;19.13;10.73;;;9.50;99.90;;;;;;5075135;28;20028;-65
2023/02/22 09:05:11;;;;;;;18.08;11.27;;;9.60;99.90;;;;;;5062716;28;20107;-64
2023/02/22 09:07:41;;;;;;;18.45;11.85;;;9.80;99.90;;;;;;5073909;28;20024;-64
2023/02/22 09:10:07;;;;;;;17.98;11.45;;;9.90;99.90;;;;;;5071938;28;20059;-64
2023/02/22 09:12:32;;;;;;;17.02;11.20;;;10.00;99.90;;;;;;5073417;28;20494;-64
2023/02/22 09:14:58;;;;;;;18.70;11.30;;;10.10;99.90;;;;;;5059140;28;20028;-64
2023/02/22 09:17:23;;;;;;;19.70;11.15;;;10.20;99.90;;;;;;5065455;28;20428;-63
2023/02/22 09:19:49;;;;;;;18.67;11.50;;;10.30;99.90;;;;;;5067862;28;20139;-62
2023/02/22 09:22:14;;;;;;;19.05;11.45;;;10.70;99.90;;;;;;5055422;28;20032;-62
2023/02/22 09:24:42;;;;;;;15.88;11.60;;;10.90;99.90;;;;;;5063428;28;20433;-62
2023/02/22 09:27:09;;;;;;;16.63;11.07;;;11.00;99.90;;;;;;5067893;28;20028;-63
2023/02/22 09:29:35;;;;;;;16.38;11.45;;;;;;;;;;5074969;28;20029;-63
2023/02/22 09:32:00;;;;;;;16.13;11.40;;;11.60;99.90;;;;;;5061591;28;20443;-61
2023/02/22 09:34:28;;;;;;;16.95;11.50;;;11.90;99.90;;;;;;5073297;28;20035;-62
2023/02/22 09:36:57;;;;;;;15.68;11.73;;;12.20;99.90;;;;;;5067031;28;20110;-61
2023/02/22 09:39:22;;;;;;;17.85;10.85;;;12.20;99.90;;;;;;5070505;28;20086;-61
2023/02/22 09:42:12;;;;;;;18.67;11.70;;;12.40;99.90;;;;;;5075469;28;20036;-61
2023/02/22 09:44:52;;;;;;;18.67;10.82;;;13.00;99.90;;;;;;5080802;28;20471;-61
2023/02/22 09:47:31;;;;;;;18.25;10.75;;;13.30;99.90;;;;;;5073625;28;20033;-63
2023/02/22 09:50:14;;;;;;;16.15;11.80;;;13.00;99.90;;;;;;5071639;28;20024;-62
2023/02/22 09:53:03;;;;;;;15.10;10.95;;;13.50;99.90;;;;;;5074175;28;20036;-62
2023/02/22 09:55:48;;;;;;;19.52;11.77;;;13.50;99.90;;;;;;5064666;28;20116;-62
2023/02/22 09:58:22;;;;;;;18.55;11.88;;;13.60;99.90;;;;;;5072080;28;20032;-63
2023/02/22 10:00:52;;;;;;;20.15;13.10;;;13.70;99.90;;;;;;5062307;28;20063;-63
2023/02/22 10:03:23;;;;;;;20.23;11.85;;;13.90;99.90;;;;;;5065169;28;20382;-62
2023/02/22 10:06:02;;;;;;;17.98;12.75;;;13.80;99.90;;;;;;5067387;28;20031;-63
2023/02/22 10:08:32;;;;;;;18.58;11.80;;;14.10;99.90;;;;;;5072545;28;20093;-62
2023/02/22 10:11:33;;;;;;;20.02;13.15;;;14.50;99.90;;;;;;5065674;28;20032;-63
2023/02/22 10:14:29;;;;;;;19.88;13.02;;;14.50;99.90;;;;;;5073874;28;20025;-62
2023/02/22 10:17:14;;;;;;;17.45;12.27;;;14.30;99.90;;;;;;5070283;28;20427;-64
2023/02/22 10:19:54;;;;;;;18.10;12.52;;;14.50;99.90;;;;;;5056051;28;20028;-63
2023/02/22 10:22:51;;;;;;;19.67;11.90;;;14.40;99.90;;;;;;5069840;28;20029;-63
2023/02/22 10:25:22;;;;;;;19.25;12.98;;;15.20;99.90;;;;;;5069559;28;20112;-63
2023/02/22 10:28:12;;;;;;;17.27;12.13;;;15.60;99.90;;;;;;5073616;28;20023;-63
2023/02/22 10:30:48;;;;;;;23.98;12.60;;;16.00;99.90;;;;;;5056602;28;20439;-63
2023/02/22 10:33:18;;;;;;;14.07;10.85;;;16.40;99.90;;;;;;5071577;28;20028;-63
2023/02/22 10:35:44;;;;;;;18.23;12.07;;;16.70;99.90;;;;;;5062791;28;20107;-62
2023/02/22 10:40:58;;;;;;;22.25;11.93;;;16.70;99.90;;;;;;5100841;27;20427;-63
2023/02/22 10:43:24;;;;;;;19.40;11.73;;;16.80;99.90;;;;;;5087310;28;20426;-62
2023/02/22 10:45:54;;;;;;;17.38;11.30;;;16.60;99.90;;;;;;5088402;28;20064;-62
2023/02/22 10:48:21;;;;;;;17.42;11.65;;;16.00;99.90;;;;;;5088655;28;20055;-62
2023/02/22 10:50:49;;;;;;;19.30;11.85;;;16.40;99.90;;;;;;5087947;28;20032;-62
2023/02/22 10:53:14;;;;;;;18.55;12.07;;;16.50;99.90;;;;;;5087898;28;20060;-62
2023/02/22 10:56:06;;;;;;;19.90;12.45;;;15.90;99.90;;;;;;5089802;28;20414;-62
2023/02/22 10:58:41;;;;;;;19.50;12.00;;;15.90;99.90;;;;;;5094446;28;20085;-62
2023/02/22 11:04:17;;;;;;;16.58;11.82;;;16.00;99.90;;;;;;5084431;27;20379;-63
2023/02/22 11:07:03;;;;;;;14.98;11.55;;;16.10;99.90;;;;;;5062839;28;20445;-63
2023/02/22 11:09:29;;;;;;;18.42;11.70;;;16.20;99.90;;;;;;5066133;28;20039;-62
2023/02/22 11:12:16;;;;;;;16.80;11.50;;;16.30;99.90;;;;;;5071825;28;20071;-62
2023/02/22 11:14:42;;;;;;;16.25;11.70;;;16.30;99.90;;;;;;5057156;28;20115;-63
2023/02/22 11:17:11;;;;;;;17.27;11.90;;;16.40;99.90;;;;;;5061172;28;20482;-61
2023/02/22 11:19:44;;;;;;;21.77;11.70;;;16.60;99.90;;;;;;5062053;28;20116;-62
2023/02/22 11:22:17;;;;;;;23.27;11.65;;;16.90;99.90;;;;;;5058410;28;20430;-62
2023/02/22 11:24:45;;;;;;;;;;;17.20;99.90;;;;;;5065311;28;20030;-61
2023/02/22 11:30:30;;;;;;;19.25;11.52;;;16.90;99.90;;;;;;5114389;27;20436;-61
2023/02/22 11:33:09;;;;;;;18.80;12.00;;;16.50;99.90;;;;;;5092333;28;21002;-62
2023/02/22 11:35:47;;;;;;;16.27;10.93;;;16.30;99.90;;;;;;5105606;28;20450;-61
2023/02/22 11:38:17;;;;;;;18.90;11.98;;;16.30;99.90;;;;;;5099091;28;20541;-61
2023/02/22 11:40:43;;;;;;;15.98;11.15;;;16.10;99.90;;;;;;5109604;28;20020;-62
2023/02/22 11:43:16;;;;;;;17.92;11.13;;;16.00;99.90;;;;;;5110437;28;20027;-62
2023/02/22 11:46:11;;;;;;;14.90;10.90;;;16.00;99.90;;;;;;5092826;28;20024;-62
2023/02/22 11:48:43;;;;;;;17.52;11.68;;;16.00;99.90;;;;;;5105266;28;20428;-64
2023/02/22 11:54:34;;;;;;;19.40;11.77;;;16.30;99.90;;;;;;5083377;27;20438;-62
2023/02/22 11:57:41;;;;;;;19.65;12.20;;;15.80;99.90;;;;;;5085183;28;20432;-62
2023/02/22 12:00:36;;;;;;;17.75;11.63;;;16.10;99.90;;;;;;5086394;28;20060;-62
2023/02/22 12:03:30;;;;;;;19.90;11.70;;;16.30;99.90;;;;;;5074586;28;20450;-65
2023/02/22 12:06:26;;;;;;;16.90;11.18;;;16.30;99.90;;;;;;5069502;28;20036;-65
2023/02/22 12:09:32;;;;;;;19.33;11.45;;;16.30;99.90;;;;;;5076987;28;20079;-62
2023/02/22 12:12:23;;;;;;;17.80;11.48;;;16.40;99.90;;;;;;5060198;28;20033;-63
2023/02/22 12:15:22;;;;;;;16.25;10.32;;;16.20;99.90;;;;;;5072760;28;20025;-62
2023/02/22 12:18:16;;;;;;;18.05;10.88;;;16.30;99.90;;;;;;5079491;28;20039;-62
2023/02/22 12:20:50;;;;;;;18.65;10.95;;;16.50;99.90;;;;;;5079142;28;20401;-62
2023/02/22 12:23:21;;;;;;;17.42;10.88;;;16.60;99.90;;;;;;5073068;28;20029;-62
2023/02/22 12:26:12;;;;;;;15.85;11.05;;;16.90;99.90;;;;;;5077851;28;20028;-62
2023/02/22 12:28:43;;;;;;;16.95;9.93;;;17.10;99.90;;;;;;5090067;28;20036;-62
2023/02/22 12:31:32;;;;;;;14.88;10.20;;;17.20;99.90;;;;;;5072556;28;20035;-62
2023/02/22 12:37:20;;;;;;;14.98;10.48;;;16.90;99.90;;;;;;5078136;28;20333;-62
2023/02/22 12:40:07;;;;;;;16.23;9.77;;;16.80;99.90;;;;;;5074099;28;20037;-62
2023/02/22 12:42:48;;;;;;;13.95;9.60;;;16.90;99.90;;;;;;5069189;28;20093;-62
2023/02/22 12:45:37;;;;;;;14.25;9.70;;;16.90;99.90;;;;;;5070511;28;20031;-62
2023/02/22 12:48:29;;;;;;;15.85;8.80;;;17.00;99.90;;;;;;5072188;28;20120;-62
2023/02/22 12:51:02;;;;;;;14.50;9.10;;;17.10;99.90;;;;;;5066301;28;20083;-63
2023/02/22 12:53:37;;;;;;;15.88;8.23;;;17.00;99.90;;;;;;5070360;28;20497;-62
2023/02/22 12:56:32;;;;;;;15.38;7.18;;;17.10;99.90;;;;;;5069167;28;20035;-62
2023/02/22 12:59:07;;;;;;;12.23;6.55;;;17.20;99.90;;;;;;5066892;28;20075;-62
2023/02/22 13:01:39;;;;;;;11.77;5.97;;;16.90;99.90;;;;;;5068606;28;20031;-64
2023/02/22 13:04:07;;;;;;;10.25;6.53;;;16.90;99.90;;;;;;5068320;28;20513;-64
2023/02/22 13:10:08;;;;;;;11.90;5.65;;;16.90;99.90;;;;;;5065911;28;20384;-65
2023/02/22 13:13:02;;;;;;;10.27;5.05;;;16.90;99.90;;;;;;5068016;28;20024;-64
2023/02/22 13:15:53;;;;;;;9.02;4.40;;;16.70;99.90;;;;;;5048507;28;20471;-66
2023/02/22 13:18:33;;;;;;;8.65;4.60;;;16.80;99.90;;;;;;5058323;28;20024;-64